Terminal Aerodrome Forecast
Issued by NWS Cleveland, OH

Home | Current Version | Previous Version | Text Only | Print | Product List | Glossary Off
Versions: 1 2 3 4 5 6 7 8 9 10 11 12 13 14 15 16 17 18 19 20 21

000
FTUS41 KCLE 242300
TAFMFD
TAF
KMFD 242320Z 2500/2524 08006KT P6SM BKN120
     FM250600 16003KT 4SM BR BKN080
     FM250900 16003KT 1SM BR BKN003
     FM251300 16003KT 4SM BR BKN005
     FM251500 16005KT P6SM BKN025
     FM251900 18007KT P6SM BKN250=

USA.gov is the U.S. government's official web portal to all federal, state and local government web resources and services.